Terminal Aerodrome Forecast
Issued by NWS

Home | Current Version | Previous Version | Graphics & Text | Print | Product List | Glossary On
Versions: 1 2 3 4 5 6 7 8 9 10 11 12 13 14 15
000
FTUS43 KMPX 250536
TAFRWF
TAF
KRWF 250536Z 2506/2606 18012KT 3SM BR OVC007
     FM250700 21014G20KT 1SM BR OVC004
     FM251100 27018G27KT P6SM SCT007
     FM251700 30024G34KT P6SM BKN025
     FM260100 31015G23KT P6SM SKC=

USA.gov is the U.S. government's official web portal to all federal, state and local government web resources and services.